Terminal Aerodrome Forecast
Issued by NWS

Home | Current Version | Previous Version | Text Only | Print | Product List | Glossary On
Versions: 1 2 3 4 5 6 7 8 9 10 11 12 13 14 15 16 17 18 19 20 21 22 23 24 25 26 27 28 29
000
FTUS41 KCTP 290826 AAB
TAFJST
TAF AMD
KJST 290826Z 2908/3006 27008KT 5SM -RA OVC050
     FM290900 25010KT P6SM VCSH OVC050
     FM291500 27010KT P6SM OVC050
     FM292000 33010KT P6SM OVC050
     FM300000 VRB05KT P6SM OVC050=

USA.gov is the U.S. government's official web portal to all federal, state and local government web resources and services.